sensor_id;sensor_type;location;lat;lon;timestamp;temperature;humidity
31733;DHT22;18312;51.486;7.144;2022-08-01T00:02:21;18.70;99.90
31733;DHT22;18312;51.486;7.144;2022-08-01T00:04:56;18.70;99.90
31733;DHT22;18312;51.486;7.144;2022-08-01T00:07:33;18.60;99.90
31733;DHT22;18312;51.486;7.144;2022-08-01T00:10:00;18.60;99.90
31733;DHT22;18312;51.486;7.144;2022-08-01T00:12:27;18.60;99.90
31733;DHT22;18312;51.486;7.144;2022-08-01T00:14:56;18.60;99.90
31733;DHT22;18312;51.486;7.144;2022-08-01T00:17:23;18.60;99.90
31733;DHT22;18312;51.486;7.144;2022-08-01T00:19:58;18.60;99.90
31733;DHT22;18312;51.486;7.144;2022-08-01T00:22:25;18.60;99.90
31733;DHT22;18312;51.486;7.144;2022-08-01T00:24:53;18.60;99.90
31733;DHT22;18312;51.486;7.144;2022-08-01T00:27:20;18.60;99.90
31733;DHT22;18312;51.486;7.144;2022-08-01T00:29:47;18.60;99.90
31733;DHT22;18312;51.486;7.144;2022-08-01T00:32:13;18.60;99.90
31733;DHT22;18312;51.486;7.144;2022-08-01T00:34:43;18.60;99.90
31733;DHT22;18312;51.486;7.144;2022-08-01T00:37:10;18.60;99.90
31733;DHT22;18312;51.486;7.144;2022-08-01T00:39:37;18.70;99.90
31733;DHT22;18312;51.486;7.144;2022-08-01T00:42:08;18.70;99.90
31733;DHT22;18312;51.486;7.144;2022-08-01T00:44:37;18.60;99.90
31733;DHT22;18312;51.486;7.144;2022-08-01T00:47:05;18.70;99.90
31733;DHT22;18312;51.486;7.144;2022-08-01T00:49:34;18.70;99.90
31733;DHT22;18312;51.486;7.144;2022-08-01T00:52:01;18.70;99.90
31733;DHT22;18312;51.486;7.144;2022-08-01T00:54:30;18.70;99.90
31733;DHT22;18312;51.486;7.144;2022-08-01T00:56:58;18.60;99.90
31733;DHT22;18312;51.486;7.144;2022-08-01T00:59:26;18.70;99.90
31733;DHT22;18312;51.486;7.144;2022-08-01T01:01:53;18.70;99.90
31733;DHT22;18312;51.486;7.144;2022-08-01T01:04:20;18.70;99.90
31733;DHT22;18312;51.486;7.144;2022-08-01T01:06:53;18.70;99.90
31733;DHT22;18312;51.486;7.144;2022-08-01T01:09:33;18.60;99.90
31733;DHT22;18312;51.486;7.144;2022-08-01T01:12:09;18.70;99.90
31733;DHT22;18312;51.486;7.144;2022-08-01T01:14:44;18.70;99.90
31733;DHT22;18312;51.486;7.144;2022-08-01T01:17:13;18.70;99.90
31733;DHT22;18312;51.486;7.144;2022-08-01T01:19:47;18.70;99.90
31733;DHT22;18312;51.486;7.144;2022-08-01T01:22:22;18.70;99.90
31733;DHT22;18312;51.486;7.144;2022-08-01T01:25:03;18.70;99.90
31733;DHT22;18312;51.486;7.144;2022-08-01T01:27:41;18.70;99.90
31733;DHT22;18312;51.486;7.144;2022-08-01T01:30:10;18.70;99.90
31733;DHT22;18312;51.486;7.144;2022-08-01T01:32:40;18.70;99.90
31733;DHT22;18312;51.486;7.144;2022-08-01T01:35:12;18.70;99.90
31733;DHT22;18312;51.486;7.144;2022-08-01T01:37:40;18.60;99.90
31733;DHT22;18312;51.486;7.144;2022-08-01T01:40:10;18.70;99.90
31733;DHT22;18312;51.486;7.144;2022-08-01T01:42:38;18.70;99.90
31733;DHT22;18312;51.486;7.144;2022-08-01T01:45:07;18.60;99.90
31733;DHT22;18312;51.486;7.144;2022-08-01T01:47:41;18.70;99.90
31733;DHT22;18312;51.486;7.144;2022-08-01T01:50:11;18.70;99.90
31733;DHT22;18312;51.486;7.144;2022-08-01T01:52:40;18.60;99.90
31733;DHT22;18312;51.486;7.144;2022-08-01T01:55:08;18.60;99.90
31733;DHT22;18312;51.486;7.144;2022-08-01T01:57:39;18.60;99.90
31733;DHT22;18312;51.486;7.144;2022-08-01T02:00:08;18.60;99.90
31733;DHT22;18312;51.486;7.144;2022-08-01T02:02:39;18.60;99.90
31733;DHT22;18312;51.486;7.144;2022-08-01T02:05:09;18.60;99.90
31733;DHT22;18312;51.486;7.144;2022-08-01T02:07:37;18.60;99.90
31733;DHT22;18312;51.486;7.144;2022-08-01T02:10:06;18.60;99.90
31733;DHT22;18312;51.486;7.144;2022-08-01T02:12:37;18.60;99.90
31733;DHT22;18312;51.486;7.144;2022-08-01T02:15:05;18.60;99.90
31733;DHT22;18312;51.486;7.144;2022-08-01T02:17:39;18.60;99.90
31733;DHT22;18312;51.486;7.144;2022-08-01T02:20:08;18.60;99.90
31733;DHT22;18312;51.486;7.144;2022-08-01T02:22:40;18.60;99.90
31733;DHT22;18312;51.486;7.144;2022-08-01T02:25:11;18.60;99.90
31733;DHT22;18312;51.486;7.144;2022-08-01T02:27:47;18.60;99.90
31733;DHT22;18312;51.486;7.144;2022-08-01T02:30:19;18.60;99.90
31733;DHT22;18312;51.486;7.144;2022-08-01T02:32:52;18.60;99.90
31733;DHT22;18312;51.486;7.144;2022-08-01T02:35:21;18.70;99.90
31733;DHT22;18312;51.486;7.144;2022-08-01T02:37:50;18.60;99.90
31733;DHT22;18312;51.486;7.144;2022-08-01T02:40:19;18.60;99.90
31733;DHT22;18312;51.486;7.144;2022-08-01T02:42:49;18.60;99.90
31733;DHT22;18312;51.486;7.144;2022-08-01T02:45:18;18.60;99.90
31733;DHT22;18312;51.486;7.144;2022-08-01T02:47:46;18.60;99.90
31733;DHT22;18312;51.486;7.144;2022-08-01T02:50:15;18.60;99.90
31733;DHT22;18312;51.486;7.144;2022-08-01T02:52:49;18.70;99.90
31733;DHT22;18312;51.486;7.144;2022-08-01T02:55:17;18.60;99.90
31733;DHT22;18312;51.486;7.144;2022-08-01T02:57:45;18.60;99.90
31733;DHT22;18312;51.486;7.144;2022-08-01T03:00:14;18.60;99.90
31733;DHT22;18312;51.486;7.144;2022-08-01T03:02:42;18.60;99.90
31733;DHT22;18312;51.486;7.144;2022-08-01T03:05:10;18.60;99.90
31733;DHT22;18312;51.486;7.144;2022-08-01T03:07:40;18.60;99.90
31733;DHT22;18312;51.486;7.144;2022-08-01T03:10:08;18.60;99.90
31733;DHT22;18312;51.486;7.144;2022-08-01T03:12:39;18.60;99.90
31733;DHT22;18312;51.486;7.144;2022-08-01T03:15:09;18.60;99.90
31733;DHT22;18312;51.486;7.144;2022-08-01T03:17:37;18.60;99.90
31733;DHT22;18312;51.486;7.144;2022-08-01T03:20:07;18.60;99.90
31733;DHT22;18312;51.486;7.144;2022-08-01T03:22:39;18.60;99.90
31733;DHT22;18312;51.486;7.144;2022-08-01T03:25:16;18.60;99.90
31733;DHT22;18312;51.486;7.144;2022-08-01T03:27:47;18.60;99.90
31733;DHT22;18312;51.486;7.144;2022-08-01T03:30:14;18.60;99.90
31733;DHT22;18312;51.486;7.144;2022-08-01T03:32:46;18.60;99.90
31733;DHT22;18312;51.486;7.144;2022-08-01T03:35:16;18.60;99.90
31733;DHT22;18312;51.486;7.144;2022-08-01T03:37:45;18.60;99.90
31733;DHT22;18312;51.486;7.144;2022-08-01T03:40:17;18.60;99.90
31733;DHT22;18312;51.486;7.144;2022-08-01T03:42:52;18.60;99.90
31733;DHT22;18312;51.486;7.144;2022-08-01T03:45:23;18.60;99.90
31733;DHT22;18312;51.486;7.144;2022-08-01T03:47:54;18.60;99.90
31733;DHT22;18312;51.486;7.144;2022-08-01T03:50:22;18.60;99.90
31733;DHT22;18312;51.486;7.144;2022-08-01T03:52:52;18.60;99.90
31733;DHT22;18312;51.486;7.144;2022-08-01T03:55:20;18.60;99.90
31733;DHT22;18312;51.486;7.144;2022-08-01T03:57:50;18.60;99.90
31733;DHT22;18312;51.486;7.144;2022-08-01T04:00:18;18.60;99.90
31733;DHT22;18312;51.486;7.144;2022-08-01T04:02:45;18.60;99.90
31733;DHT22;18312;51.486;7.144;2022-08-01T04:05:12;18.60;99.90
31733;DHT22;18312;51.486;7.144;2022-08-01T04:07:39;18.60;99.90
31733;DHT22;18312;51.486;7.144;2022-08-01T04:10:09;18.60;99.90
31733;DHT22;18312;51.486;7.144;2022-08-01T04:12:36;18.60;99.90
31733;DHT22;18312;51.486;7.144;2022-08-01T04:15:06;18.50;99.90
31733;DHT22;18312;51.486;7.144;2022-08-01T04:17:33;18.50;99.90
31733;DHT22;18312;51.486;7.144;2022-08-01T04:20:04;18.60;99.90
31733;DHT22;18312;51.486;7.144;2022-08-01T04:22:38;18.50;99.90
31733;DHT22;18312;51.486;7.144;2022-08-01T04:25:14;18.50;99.90
31733;DHT22;18312;51.486;7.144;2022-08-01T04:27:46;18.50;99.90
31733;DHT22;18312;51.486;7.144;2022-08-01T04:30:14;18.50;99.90
31733;DHT22;18312;51.486;7.144;2022-08-01T04:32:44;18.50;99.90
31733;DHT22;18312;51.486;7.144;2022-08-01T04:35:19;18.50;99.90
31733;DHT22;18312;51.486;7.144;2022-08-01T04:37:49;18.50;99.90
31733;DHT22;18312;51.486;7.144;2022-08-01T04:40:28;18.50;99.90
31733;DHT22;18312;51.486;7.144;2022-08-01T04:42:55;18.60;99.90
31733;DHT22;18312;51.486;7.144;2022-08-01T04:45:23;18.60;99.90
31733;DHT22;18312;51.486;7.144;2022-08-01T04:47:53;18.60;99.90
31733;DHT22;18312;51.486;7.144;2022-08-01T04:50:20;18.60;99.90
31733;DHT22;18312;51.486;7.144;2022-08-01T04:52:48;18.60;99.90
31733;DHT22;18312;51.486;7.144;2022-08-01T04:55:17;18.60;99.90
31733;DHT22;18312;51.486;7.144;2022-08-01T04:57:46;18.60;99.90
31733;DHT22;18312;51.486;7.144;2022-08-01T05:00:14;18.60;99.90
31733;DHT22;18312;51.486;7.144;2022-08-01T05:02:45;18.60;99.90
31733;DHT22;18312;51.486;7.144;2022-08-01T05:05:12;18.60;99.90
31733;DHT22;18312;51.486;7.144;2022-08-01T05:07:39;18.70;99.90
31733;DHT22;18312;51.486;7.144;2022-08-01T05:10:06;18.70;99.90
31733;DHT22;18312;51.486;7.144;2022-08-01T05:12:35;18.70;99.90
31733;DHT22;18312;51.486;7.144;2022-08-01T05:15:04;18.70;99.90
31733;DHT22;18312;51.486;7.144;2022-08-01T05:17:34;18.60;99.90
31733;DHT22;18312;51.486;7.144;2022-08-01T05:20:01;18.60;99.90
31733;DHT22;18312;51.486;7.144;2022-08-01T05:22:28;18.60;99.90
31733;DHT22;18312;51.486;7.144;2022-08-01T05:24:54;18.60;99.90
31733;DHT22;18312;51.486;7.144;2022-08-01T05:27:22;18.70;99.90
31733;DHT22;18312;51.486;7.144;2022-08-01T05:29:48;18.60;99.90
31733;DHT22;18312;51.486;7.144;2022-08-01T05:32:19;18.80;99.90
31733;DHT22;18312;51.486;7.144;2022-08-01T05:34:45;18.70;99.90
31733;DHT22;18312;51.486;7.144;2022-08-01T05:37:18;18.80;99.90
31733;DHT22;18312;51.486;7.144;2022-08-01T05:39:45;18.90;99.90
31733;DHT22;18312;51.486;7.144;2022-08-01T05:42:11;18.90;99.90
31733;DHT22;18312;51.486;7.144;2022-08-01T05:44:38;19.00;99.90
31733;DHT22;18312;51.486;7.144;2022-08-01T05:47:14;19.00;99.90
31733;DHT22;18312;51.486;7.144;2022-08-01T05:49:42;19.10;99.90
31733;DHT22;18312;51.486;7.144;2022-08-01T05:52:10;19.00;99.90
31733;DHT22;18312;51.486;7.144;2022-08-01T05:54:37;19.00;99.90
31733;DHT22;18312;51.486;7.144;2022-08-01T05:57:06;19.10;99.90
31733;DHT22;18312;51.486;7.144;2022-08-01T05:59:33;19.00;99.90
31733;DHT22;18312;51.486;7.144;2022-08-01T06:02:05;19.10;99.90
31733;DHT22;18312;51.486;7.144;2022-08-01T06:04:31;19.20;99.90
31733;DHT22;18312;51.486;7.144;2022-08-01T06:07:02;19.20;99.90
31733;DHT22;18312;51.486;7.144;2022-08-01T06:09:29;19.20;99.90
31733;DHT22;18312;51.486;7.144;2022-08-01T06:12:02;19.10;99.90
31733;DHT22;18312;51.486;7.144;2022-08-01T06:14:29;19.10;99.90
31733;DHT22;18312;51.486;7.144;2022-08-01T06:16:58;19.20;99.90
31733;DHT22;18312;51.486;7.144;2022-08-01T06:19:27;19.30;99.90
31733;DHT22;18312;51.486;7.144;2022-08-01T06:21:57;19.40;99.90
31733;DHT22;18312;51.486;7.144;2022-08-01T06:24:25;19.60;99.90
31733;DHT22;18312;51.486;7.144;2022-08-01T06:26:52;19.80;99.90
31733;DHT22;18312;51.486;7.144;2022-08-01T06:29:18;19.70;99.90
31733;DHT22;18312;51.486;7.144;2022-08-01T06:31:51;20.00;99.90
31733;DHT22;18312;51.486;7.144;2022-08-01T06:34:18;20.10;99.90
31733;DHT22;18312;51.486;7.144;2022-08-01T06:36:44;19.90;99.90
31733;DHT22;18312;51.486;7.144;2022-08-01T06:39:11;20.20;99.90
31733;DHT22;18312;51.486;7.144;2022-08-01T06:41:41;20.30;99.90
31733;DHT22;18312;51.486;7.144;2022-08-01T06:44:11;20.30;99.90
31733;DHT22;18312;51.486;7.144;2022-08-01T06:46:38;20.40;99.90
31733;DHT22;18312;51.486;7.144;2022-08-01T06:49:04;20.50;99.90
31733;DHT22;18312;51.486;7.144;2022-08-01T06:51:31;20.90;99.90
31733;DHT22;18312;51.486;7.144;2022-08-01T06:53:58;21.30;99.90
31733;DHT22;18312;51.486;7.144;2022-08-01T06:56:25;21.20;99.90
31733;DHT22;18312;51.486;7.144;2022-08-01T06:58:56;21.00;99.90
31733;DHT22;18312;51.486;7.144;2022-08-01T07:01:26;21.00;99.90
31733;DHT22;18312;51.486;7.144;2022-08-01T07:03:53;21.20;99.90
31733;DHT22;18312;51.486;7.144;2022-08-01T07:06:20;21.20;99.90
31733;DHT22;18312;51.486;7.144;2022-08-01T07:08:46;21.20;99.90
31733;DHT22;18312;51.486;7.144;2022-08-01T07:11:16;21.50;99.90
31733;DHT22;18312;51.486;7.144;2022-08-01T07:13:43;21.30;99.90
31733;DHT22;18312;51.486;7.144;2022-08-01T07:16:14;21.20;99.90
31733;DHT22;18312;51.486;7.144;2022-08-01T07:18:41;21.30;99.90
31733;DHT22;18312;51.486;7.144;2022-08-01T07:21:08;21.30;99.90
31733;DHT22;18312;51.486;7.144;2022-08-01T07:23:35;21.20;99.90
31733;DHT22;18312;51.486;7.144;2022-08-01T07:26:03;21.50;99.90
31733;DHT22;18312;51.486;7.144;2022-08-01T07:28:30;21.40;99.90
31733;DHT22;18312;51.486;7.144;2022-08-01T07:30:57;21.80;99.90
31733;DHT22;18312;51.486;7.144;2022-08-01T07:33:25;22.00;99.90
31733;DHT22;18312;51.486;7.144;2022-08-01T07:35:51;22.00;99.90
31733;DHT22;18312;51.486;7.144;2022-08-01T07:38:18;21.90;99.90
31733;DHT22;18312;51.486;7.144;2022-08-01T07:40:45;22.00;99.90
31733;DHT22;18312;51.486;7.144;2022-08-01T07:43:12;21.90;99.90
31733;DHT22;18312;51.486;7.144;2022-08-01T07:45:41;22.00;99.90
31733;DHT22;18312;51.486;7.144;2022-08-01T07:48:08;21.80;99.90
31733;DHT22;18312;51.486;7.144;2022-08-01T07:50:36;22.00;99.90
31733;DHT22;18312;51.486;7.144;2022-08-01T07:53:03;22.00;99.90
31733;DHT22;18312;51.486;7.144;2022-08-01T07:55:30;21.90;99.90
31733;DHT22;18312;51.486;7.144;2022-08-01T07:57:59;22.10;99.90
31733;DHT22;18312;51.486;7.144;2022-08-01T08:00:25;22.20;99.90
31733;DHT22;18312;51.486;7.144;2022-08-01T08:02:52;22.20;99.90
31733;DHT22;18312;51.486;7.144;2022-08-01T08:05:22;22.50;99.90
31733;DHT22;18312;51.486;7.144;2022-08-01T08:07:53;22.70;99.90
31733;DHT22;18312;51.486;7.144;2022-08-01T08:10:21;22.90;99.90
31733;DHT22;18312;51.486;7.144;2022-08-01T08:12:50;22.90;99.90
31733;DHT22;18312;51.486;7.144;2022-08-01T08:15:17;22.70;99.90
31733;DHT22;18312;51.486;7.144;2022-08-01T08:17:44;22.70;99.90
31733;DHT22;18312;51.486;7.144;2022-08-01T08:20:11;22.80;99.90
31733;DHT22;18312;51.486;7.144;2022-08-01T08:22:40;22.70;99.90
31733;DHT22;18312;51.486;7.144;2022-08-01T08:25:12;23.00;99.90
31733;DHT22;18312;51.486;7.144;2022-08-01T08:27:38;23.30;99.90
31733;DHT22;18312;51.486;7.144;2022-08-01T08:30:06;22.60;99.90
31733;DHT22;18312;51.486;7.144;2022-08-01T08:32:33;22.10;99.90
31733;DHT22;18312;51.486;7.144;2022-08-01T08:35:00;22.10;99.90
31733;DHT22;18312;51.486;7.144;2022-08-01T08:37:31;22.10;99.90
31733;DHT22;18312;51.486;7.144;2022-08-01T08:39:58;22.40;99.90
31733;DHT22;18312;51.486;7.144;2022-08-01T08:42:26;22.60;99.90
31733;DHT22;18312;51.486;7.144;2022-08-01T08:44:53;23.00;99.90
31733;DHT22;18312;51.486;7.144;2022-08-01T08:47:21;23.10;99.90
31733;DHT22;18312;51.486;7.144;2022-08-01T08:49:50;23.60;99.90
31733;DHT22;18312;51.486;7.144;2022-08-01T08:52:20;23.00;99.90
31733;DHT22;18312;51.486;7.144;2022-08-01T08:54:49;22.40;99.90
31733;DHT22;18312;51.486;7.144;2022-08-01T08:57:16;22.50;99.90
31733;DHT22;18312;51.486;7.144;2022-08-01T08:59:49;22.10;99.90
31733;DHT22;18312;51.486;7.144;2022-08-01T09:02:19;21.90;99.90
31733;DHT22;18312;51.486;7.144;2022-08-01T09:04:47;22.40;99.90
31733;DHT22;18312;51.486;7.144;2022-08-01T09:07:14;22.60;99.90
31733;DHT22;18312;51.486;7.144;2022-08-01T09:09:41;23.20;99.90
31733;DHT22;18312;51.486;7.144;2022-08-01T09:12:08;23.30;99.90
31733;DHT22;18312;51.486;7.144;2022-08-01T09:14:44;23.30;99.90
31733;DHT22;18312;51.486;7.144;2022-08-01T09:17:15;23.00;99.90
31733;DHT22;18312;51.486;7.144;2022-08-01T09:19:43;22.60;99.90
31733;DHT22;18312;51.486;7.144;2022-08-01T09:22:13;22.30;99.90
31733;DHT22;18312;51.486;7.144;2022-08-01T09:24:39;22.30;99.90
31733;DHT22;18312;51.486;7.144;2022-08-01T09:27:16;22.10;99.90
31733;DHT22;18312;51.486;7.144;2022-08-01T09:29:43;22.60;99.90
31733;DHT22;18312;51.486;7.144;2022-08-01T09:32:12;23.20;99.90
31733;DHT22;18312;51.486;7.144;2022-08-01T09:34:41;23.50;99.90
31733;DHT22;18312;51.486;7.144;2022-08-01T09:37:08;23.60;99.90
31733;DHT22;18312;51.486;7.144;2022-08-01T09:39:36;24.50;99.90
31733;DHT22;18312;51.486;7.144;2022-08-01T09:42:20;24.90;99.90
31733;DHT22;18312;51.486;7.144;2022-08-01T09:44:47;25.10;99.90
31733;DHT22;18312;51.486;7.144;2022-08-01T09:47:15;23.90;99.90
31733;DHT22;18312;51.486;7.144;2022-08-01T09:49:43;23.30;99.90
31733;DHT22;18312;51.486;7.144;2022-08-01T09:52:12;22.90;99.90
31733;DHT22;18312;51.486;7.144;2022-08-01T09:54:39;22.80;99.90
31733;DHT22;18312;51.486;7.144;2022-08-01T09:57:10;23.30;99.90
31733;DHT22;18312;51.486;7.144;2022-08-01T09:59:39;23.70;99.90
31733;DHT22;18312;51.486;7.144;2022-08-01T10:02:10;23.90;99.90
31733;DHT22;18312;51.486;7.144;2022-08-01T10:04:47;23.80;99.90
31733;DHT22;18312;51.486;7.144;2022-08-01T10:07:14;23.30;99.90
31733;DHT22;18312;51.486;7.144;2022-08-01T10:09:46;23.70;99.90
31733;DHT22;18312;51.486;7.144;2022-08-01T10:12:17;24.10;99.90
31733;DHT22;18312;51.486;7.144;2022-08-01T10:14:48;24.00;99.90
31733;DHT22;18312;51.486;7.144;2022-08-01T10:17:17;23.60;99.90
31733;DHT22;18312;51.486;7.144;2022-08-01T10:19:45;23.80;99.90
31733;DHT22;18312;51.486;7.144;2022-08-01T10:22:14;24.00;99.90
31733;DHT22;18312;51.486;7.144;2022-08-01T10:24:42;23.80;99.90
31733;DHT22;18312;51.486;7.144;2022-08-01T10:27:10;23.80;99.90
31733;DHT22;18312;51.486;7.144;2022-08-01T10:29:42;23.40;99.90
31733;DHT22;18312;51.486;7.144;2022-08-01T10:32:09;23.50;99.90
31733;DHT22;18312;51.486;7.144;2022-08-01T10:34:37;23.70;99.90
31733;DHT22;18312;51.486;7.144;2022-08-01T10:37:05;23.80;99.90
31733;DHT22;18312;51.486;7.144;2022-08-01T10:39:33;23.70;99.90
31733;DHT22;18312;51.486;7.144;2022-08-01T10:42:01;23.40;99.90
31733;DHT22;18312;51.486;7.144;2022-08-01T10:44:35;23.80;99.90
31733;DHT22;18312;51.486;7.144;2022-08-01T10:47:08;23.40;99.90
31733;DHT22;18312;51.486;7.144;2022-08-01T10:49:41;22.90;99.90
31733;DHT22;18312;51.486;7.144;2022-08-01T10:52:14;22.60;99.90
31733;DHT22;18312;51.486;7.144;2022-08-01T10:54:42;22.60;99.90
31733;DHT22;18312;51.486;7.144;2022-08-01T10:57:09;22.80;99.90
31733;DHT22;18312;51.486;7.144;2022-08-01T10:59:48;23.30;99.90
31733;DHT22;18312;51.486;7.144;2022-08-01T11:02:26;23.60;99.90
31733;DHT22;18312;51.486;7.144;2022-08-01T11:04:55;23.60;99.90
31733;DHT22;18312;51.486;7.144;2022-08-01T11:07:24;24.10;99.90
31733;DHT22;18312;51.486;7.144;2022-08-01T11:10:07;24.30;99.90
31733;DHT22;18312;51.486;7.144;2022-08-01T11:12:39;24.30;99.90
31733;DHT22;18312;51.486;7.144;2022-08-01T11:15:24;24.20;99.90
31733;DHT22;18312;51.486;7.144;2022-08-01T11:17:52;23.80;99.90
31733;DHT22;18312;51.486;7.144;2022-08-01T11:20:21;22.90;99.90
31733;DHT22;18312;51.486;7.144;2022-08-01T11:23:15;23.00;99.90
31733;DHT22;18312;51.486;7.144;2022-08-01T11:29:11;22.60;99.90
31733;DHT22;18312;51.486;7.144;2022-08-01T11:31:41;22.60;99.90
31733;DHT22;18312;51.486;7.144;2022-08-01T11:34:08;22.80;99.90
31733;DHT22;18312;51.486;7.144;2022-08-01T11:36:34;22.60;99.90
31733;DHT22;18312;51.486;7.144;2022-08-01T11:39:18;22.70;99.90
31733;DHT22;18312;51.486;7.144;2022-08-01T11:41:46;23.30;99.90
31733;DHT22;18312;51.486;7.144;2022-08-01T11:44:19;24.40;99.90
31733;DHT22;18312;51.486;7.144;2022-08-01T11:47:01;24.60;99.90
31733;DHT22;18312;51.486;7.144;2022-08-01T11:49:32;24.00;99.90
31733;DHT22;18312;51.486;7.144;2022-08-01T11:52:02;23.90;99.90
31733;DHT22;18312;51.486;7.144;2022-08-01T11:54:35;24.00;99.90
31733;DHT22;18312;51.486;7.144;2022-08-01T11:57:03;24.40;99.90
31733;DHT22;18312;51.486;7.144;2022-08-01T11:59:38;24.80;99.90
31733;DHT22;18312;51.486;7.144;2022-08-01T12:02:22;25.00;99.90
31733;DHT22;18312;51.486;7.144;2022-08-01T12:04:51;24.80;99.90
31733;DHT22;18312;51.486;7.144;2022-08-01T12:07:19;24.70;99.90
31733;DHT22;18312;51.486;7.144;2022-08-01T12:10:07;24.20;99.90
31733;DHT22;18312;51.486;7.144;2022-08-01T12:12:35;24.20;99.90
31733;DHT22;18312;51.486;7.144;2022-08-01T12:15:05;24.00;99.90
31733;DHT22;18312;51.486;7.144;2022-08-01T12:17:35;24.00;99.90
31733;DHT22;18312;51.486;7.144;2022-08-01T12:20:03;24.50;99.90
31733;DHT22;18312;51.486;7.144;2022-08-01T12:22:31;24.80;99.90
31733;DHT22;18312;51.486;7.144;2022-08-01T12:25:08;25.10;99.90
31733;DHT22;18312;51.486;7.144;2022-08-01T12:27:40;25.80;99.90
31733;DHT22;18312;51.486;7.144;2022-08-01T12:30:14;25.50;99.90
31733;DHT22;18312;51.486;7.144;2022-08-01T12:32:52;25.30;99.90
31733;DHT22;18312;51.486;7.144;2022-08-01T12:35:23;25.10;99.90
31733;DHT22;18312;51.486;7.144;2022-08-01T12:37:55;25.50;99.90
31733;DHT22;18312;51.486;7.144;2022-08-01T12:40:23;25.50;99.90
31733;DHT22;18312;51.486;7.144;2022-08-01T12:42:51;25.50;99.90
31733;DHT22;18312;51.486;7.144;2022-08-01T12:45:21;24.80;99.90
31733;DHT22;18312;51.486;7.144;2022-08-01T12:47:50;24.30;99.90
31733;DHT22;18312;51.486;7.144;2022-08-01T12:50:20;24.30;99.90
31733;DHT22;18312;51.486;7.144;2022-08-01T12:52:50;24.50;99.90
31733;DHT22;18312;51.486;7.144;2022-08-01T12:55:18;24.70;99.90
31733;DHT22;18312;51.486;7.144;2022-08-01T12:57:47;25.00;99.90
31733;DHT22;18312;51.486;7.144;2022-08-01T13:00:22;24.70;99.90
31733;DHT22;18312;51.486;7.144;2022-08-01T13:03:00;24.30;99.90
31733;DHT22;18312;51.486;7.144;2022-08-01T13:05:27;25.40;99.90
31733;DHT22;18312;51.486;7.144;2022-08-01T13:07:54;25.80;99.90
31733;DHT22;18312;51.486;7.144;2022-08-01T13:10:26;26.00;99.90
31733;DHT22;18312;51.486;7.144;2022-08-01T13:12:56;24.90;99.90
31733;DHT22;18312;51.486;7.144;2022-08-01T13:15:29;24.60;99.90
31733;DHT22;18312;51.486;7.144;2022-08-01T13:17:59;24.20;99.90
31733;DHT22;18312;51.486;7.144;2022-08-01T13:20:29;24.50;99.90
31733;DHT22;18312;51.486;7.144;2022-08-01T13:23:13;24.50;99.90
31733;DHT22;18312;51.486;7.144;2022-08-01T13:25:52;24.50;99.90
31733;DHT22;18312;51.486;7.144;2022-08-01T13:28:21;25.00;99.90
31733;DHT22;18312;51.486;7.144;2022-08-01T13:30:57;24.80;99.90
31733;DHT22;18312;51.486;7.144;2022-08-01T13:33:25;25.00;99.90
31733;DHT22;18312;51.486;7.144;2022-08-01T13:35:53;25.60;99.90
31733;DHT22;18312;51.486;7.144;2022-08-01T13:38:24;25.50;99.90
31733;DHT22;18312;51.486;7.144;2022-08-01T13:41:08;25.60;99.90
31733;DHT22;18312;51.486;7.144;2022-08-01T13:43:35;25.70;99.90
31733;DHT22;18312;51.486;7.144;2022-08-01T13:46:04;25.80;99.90
31733;DHT22;18312;51.486;7.144;2022-08-01T13:48:32;25.90;99.90
31733;DHT22;18312;51.486;7.144;2022-08-01T13:50:59;25.20;99.90
31733;DHT22;18312;51.486;7.144;2022-08-01T13:53:27;25.10;99.90
31733;DHT22;18312;51.486;7.144;2022-08-01T13:55:55;24.90;99.90
31733;DHT22;18312;51.486;7.144;2022-08-01T13:58:22;25.00;99.90
31733;DHT22;18312;51.486;7.144;2022-08-01T14:00:49;24.90;99.90
31733;DHT22;18312;51.486;7.144;2022-08-01T14:03:18;25.00;99.90
31733;DHT22;18312;51.486;7.144;2022-08-01T14:05:45;25.30;99.90
31733;DHT22;18312;51.486;7.144;2022-08-01T14:08:13;25.60;99.90
31733;DHT22;18312;51.486;7.144;2022-08-01T14:10:40;25.90;99.90
31733;DHT22;18312;51.486;7.144;2022-08-01T14:13:06;25.80;99.50
31733;DHT22;18312;51.486;7.144;2022-08-01T14:15:33;25.60;98.20
31733;DHT22;18312;51.486;7.144;2022-08-01T14:18:00;25.30;99.70
31733;DHT22;18312;51.486;7.144;2022-08-01T14:20:29;25.90;99.90
31733;DHT22;18312;51.486;7.144;2022-08-01T14:22:56;26.00;99.90
31733;DHT22;18312;51.486;7.144;2022-08-01T14:25:23;25.10;99.90
31733;DHT22;18312;51.486;7.144;2022-08-01T14:27:50;24.70;99.90
31733;DHT22;18312;51.486;7.144;2022-08-01T14:30:20;24.60;99.90
31733;DHT22;18312;51.486;7.144;2022-08-01T14:32:47;24.60;99.90
31733;DHT22;18312;51.486;7.144;2022-08-01T14:35:14;25.10;99.90
31733;DHT22;18312;51.486;7.144;2022-08-01T14:37:42;25.00;99.90
31733;DHT22;18312;51.486;7.144;2022-08-01T14:40:09;24.60;99.90
31733;DHT22;18312;51.486;7.144;2022-08-01T14:42:37;24.20;99.90
31733;DHT22;18312;51.486;7.144;2022-08-01T14:45:05;24.50;99.90
31733;DHT22;18312;51.486;7.144;2022-08-01T14:47:34;24.70;99.90
31733;DHT22;18312;51.486;7.144;2022-08-01T14:50:02;24.90;99.90
31733;DHT22;18312;51.486;7.144;2022-08-01T14:52:29;24.80;99.90
31733;DHT22;18312;51.486;7.144;2022-08-01T14:54:57;24.40;99.90
31733;DHT22;18312;51.486;7.144;2022-08-01T14:57:24;24.30;99.90
31733;DHT22;18312;51.486;7.144;2022-08-01T14:59:51;24.20;99.90
31733;DHT22;18312;51.486;7.144;2022-08-01T15:02:19;24.40;99.90
31733;DHT22;18312;51.486;7.144;2022-08-01T15:04:46;24.60;99.90
31733;DHT22;18312;51.486;7.144;2022-08-01T15:07:16;24.80;99.90
31733;DHT22;18312;51.486;7.144;2022-08-01T15:09:44;24.80;99.90
31733;DHT22;18312;51.486;7.144;2022-08-01T15:12:12;24.80;99.90
31733;DHT22;18312;51.486;7.144;2022-08-01T15:14:39;25.10;99.90
31733;DHT22;18312;51.486;7.144;2022-08-01T15:17:16;25.10;99.90
31733;DHT22;18312;51.486;7.144;2022-08-01T15:19:44;24.90;99.90
31733;DHT22;18312;51.486;7.144;2022-08-01T15:22:11;24.60;99.90
31733;DHT22;18312;51.486;7.144;2022-08-01T15:24:38;24.80;99.90
31733;DHT22;18312;51.486;7.144;2022-08-01T15:27:06;25.20;99.90
31733;DHT22;18312;51.486;7.144;2022-08-01T15:29:35;24.90;99.90
31733;DHT22;18312;51.486;7.144;2022-08-01T15:32:02;24.80;99.90
31733;DHT22;18312;51.486;7.144;2022-08-01T15:34:30;24.50;99.90
31733;DHT22;18312;51.486;7.144;2022-08-01T15:36:58;24.20;99.90
31733;DHT22;18312;51.486;7.144;2022-08-01T15:39:39;23.90;99.90
31733;DHT22;18312;51.486;7.144;2022-08-01T15:42:08;24.20;99.90
31733;DHT22;18312;51.486;7.144;2022-08-01T15:44:37;24.40;99.90
31733;DHT22;18312;51.486;7.144;2022-08-01T15:47:04;24.50;99.90
31733;DHT22;18312;51.486;7.144;2022-08-01T15:49:31;24.40;99.90